sensor_id;sensor_type;location;lat;lon;timestamp;temperature;humidity
57552;DHT22;43379;48.160;14.036;2022-08-11T00:00:05;19.60;84.20
57552;DHT22;43379;48.160;14.036;2022-08-11T00:02:37;19.60;84.70
57552;DHT22;43379;48.160;14.036;2022-08-11T00:05:10;19.50;84.30
57552;DHT22;43379;48.160;14.036;2022-08-11T00:07:45;19.50;84.80
57552;DHT22;43379;48.160;14.036;2022-08-11T00:10:17;19.40;85.30
57552;DHT22;43379;48.160;14.036;2022-08-11T00:12:50;19.40;85.20
57552;DHT22;43379;48.160;14.036;2022-08-11T00:15:16;19.30;85.60
57552;DHT22;43379;48.160;14.036;2022-08-11T00:17:43;19.30;85.70
57552;DHT22;43379;48.160;14.036;2022-08-11T00:20:12;19.20;86.00
57552;DHT22;43379;48.160;14.036;2022-08-11T00:22:40;19.10;86.00
57552;DHT22;43379;48.160;14.036;2022-08-11T00:25:18;19.10;86.10
57552;DHT22;43379;48.160;14.036;2022-08-11T00:27:45;19.20;86.40
57552;DHT22;43379;48.160;14.036;2022-08-11T00:30:12;19.20;86.00
57552;DHT22;43379;48.160;14.036;2022-08-11T00:32:41;19.20;86.00
57552;DHT22;43379;48.160;14.036;2022-08-11T00:35:11;19.20;86.00
57552;DHT22;43379;48.160;14.036;2022-08-11T00:37:37;19.20;86.40
57552;DHT22;43379;48.160;14.036;2022-08-11T00:40:07;19.20;86.10
57552;DHT22;43379;48.160;14.036;2022-08-11T00:45:28;19.10;86.50
57552;DHT22;43379;48.160;14.036;2022-08-11T00:48:07;19.20;86.10
57552;DHT22;43379;48.160;14.036;2022-08-11T00:51:00;19.10;86.20
57552;DHT22;43379;48.160;14.036;2022-08-11T00:53:45;19.20;86.10
57552;DHT22;43379;48.160;14.036;2022-08-11T00:56:29;19.20;86.00
57552;DHT22;43379;48.160;14.036;2022-08-11T01:04:19;19.10;86.50
57552;DHT22;43379;48.160;14.036;2022-08-11T01:15:37;18.90;87.40
57552;DHT22;43379;48.160;14.036;2022-08-11T01:46:45;18.90;85.80
57552;DHT22;43379;48.160;14.036;2022-08-11T01:52:08;18.90;85.50
57552;DHT22;43379;48.160;14.036;2022-08-11T01:54:52;19.00;85.40
57552;DHT22;43379;48.160;14.036;2022-08-11T02:00:08;19.00;85.30
57552;DHT22;43379;48.160;14.036;2022-08-11T02:06:09;19.10;84.90
57552;DHT22;43379;48.160;14.036;2022-08-11T02:09:06;19.00;84.60
57552;DHT22;43379;48.160;14.036;2022-08-11T02:11:35;19.00;84.90
57552;DHT22;43379;48.160;14.036;2022-08-11T02:22:59;19.00;84.00
57552;DHT22;43379;48.160;14.036;2022-08-11T02:31:11;18.80;83.80
57552;DHT22;43379;48.160;14.036;2022-08-11T02:34:08;18.80;83.70
57552;DHT22;43379;48.160;14.036;2022-08-11T02:39:47;18.60;84.10
57552;DHT22;43379;48.160;14.036;2022-08-11T02:48:03;18.60;84.50
57552;DHT22;43379;48.160;14.036;2022-08-11T02:53:37;18.70;84.40
57552;DHT22;43379;48.160;14.036;2022-08-11T02:56:24;18.70;84.50
57552;DHT22;43379;48.160;14.036;2022-08-11T02:59:10;18.70;84.50
57552;DHT22;43379;48.160;14.036;2022-08-11T03:02:05;18.70;85.10
57552;DHT22;43379;48.160;14.036;2022-08-11T03:10:22;18.70;85.10
57552;DHT22;43379;48.160;14.036;2022-08-11T03:13:28;18.70;84.80
57552;DHT22;43379;48.160;14.036;2022-08-11T03:16:40;18.60;85.20
57552;DHT22;43379;48.160;14.036;2022-08-11T03:22:11;18.60;84.80
57552;DHT22;43379;48.160;14.036;2022-08-11T03:32:50;18.60;85.80
57552;DHT22;43379;48.160;14.036;2022-08-11T03:35:44;18.60;85.20
57552;DHT22;43379;48.160;14.036;2022-08-11T03:38:14;18.60;85.70
57552;DHT22;43379;48.160;14.036;2022-08-11T03:41:04;18.50;85.80
57552;DHT22;43379;48.160;14.036;2022-08-11T03:49:53;18.60;86.10
57552;DHT22;43379;48.160;14.036;2022-08-11T04:03:56;18.50;86.80
57552;DHT22;43379;48.160;14.036;2022-08-11T04:12:17;18.40;86.50
57552;DHT22;43379;48.160;14.036;2022-08-11T04:21:06;18.40;87.80
57552;DHT22;43379;48.160;14.036;2022-08-11T04:56:22;18.60;87.10
57552;DHT22;43379;48.160;14.036;2022-08-11T05:02:30;19.00;87.00
57552;DHT22;43379;48.160;14.036;2022-08-11T05:13:48;19.50;84.60
57552;DHT22;43379;48.160;14.036;2022-08-11T05:16:41;19.80;84.80
57552;DHT22;43379;48.160;14.036;2022-08-11T05:19:31;19.90;82.90
57552;DHT22;43379;48.160;14.036;2022-08-11T05:22:17;20.10;82.60
57552;DHT22;43379;48.160;14.036;2022-08-11T05:25:09;20.40;83.20
57552;DHT22;43379;48.160;14.036;2022-08-11T05:28:04;20.70;82.50
57552;DHT22;43379;48.160;14.036;2022-08-11T05:30:57;20.90;80.60
57552;DHT22;43379;48.160;14.036;2022-08-11T05:33:50;20.90;79.90
57552;DHT22;43379;48.160;14.036;2022-08-11T05:39:04;21.20;79.60
57552;DHT22;43379;48.160;14.036;2022-08-11T05:41:50;21.60;79.80
57552;DHT22;43379;48.160;14.036;2022-08-11T05:44:44;22.10;79.10
57552;DHT22;43379;48.160;14.036;2022-08-11T05:47:28;22.60;76.70
57552;DHT22;43379;48.160;14.036;2022-08-11T05:50:15;23.10;75.30
57552;DHT22;43379;48.160;14.036;2022-08-11T05:53:02;22.80;74.10
57552;DHT22;43379;48.160;14.036;2022-08-11T05:55:48;22.90;74.50
57552;DHT22;43379;48.160;14.036;2022-08-11T05:58:40;22.90;74.00
57552;DHT22;43379;48.160;14.036;2022-08-11T06:01:07;23.00;73.90
57552;DHT22;43379;48.160;14.036;2022-08-11T06:03:33;23.10;75.00
57552;DHT22;43379;48.160;14.036;2022-08-11T06:06:24;23.10;73.60
57552;DHT22;43379;48.160;14.036;2022-08-11T06:08:55;23.50;73.00
57552;DHT22;43379;48.160;14.036;2022-08-11T06:11:22;23.70;72.60
57552;DHT22;43379;48.160;14.036;2022-08-11T06:13:49;23.60;72.80
57552;DHT22;43379;48.160;14.036;2022-08-11T06:16:21;23.80;73.00
57552;DHT22;43379;48.160;14.036;2022-08-11T06:18:48;24.00;73.70
57552;DHT22;43379;48.160;14.036;2022-08-11T06:21:15;24.30;71.90
57552;DHT22;43379;48.160;14.036;2022-08-11T06:23:42;24.30;71.80
57552;DHT22;43379;48.160;14.036;2022-08-11T06:26:09;24.10;70.40
57552;DHT22;43379;48.160;14.036;2022-08-11T06:28:37;23.80;70.20
57552;DHT22;43379;48.160;14.036;2022-08-11T06:31:19;24.10;71.10
57552;DHT22;43379;48.160;14.036;2022-08-11T06:33:51;23.90;71.10
57552;DHT22;43379;48.160;14.036;2022-08-11T06:36:53;24.10;71.40
57552;DHT22;43379;48.160;14.036;2022-08-11T06:42:55;24.50;70.80
57552;DHT22;43379;48.160;14.036;2022-08-11T06:48:20;24.50;69.30
57552;DHT22;43379;48.160;14.036;2022-08-11T06:50:58;24.60;69.30
57552;DHT22;43379;48.160;14.036;2022-08-11T06:53:54;24.90;70.60
57552;DHT22;43379;48.160;14.036;2022-08-11T06:56:44;25.00;69.20
57552;DHT22;43379;48.160;14.036;2022-08-11T06:59:29;25.20;69.60
57552;DHT22;43379;48.160;14.036;2022-08-11T07:02:21;25.50;67.10
57552;DHT22;43379;48.160;14.036;2022-08-11T07:05:04;25.90;68.00
57552;DHT22;43379;48.160;14.036;2022-08-11T07:14:01;26.40;64.40
57552;DHT22;43379;48.160;14.036;2022-08-11T07:16:48;26.50;64.70
57552;DHT22;43379;48.160;14.036;2022-08-11T07:19:26;26.60;64.90
57552;DHT22;43379;48.160;14.036;2022-08-11T07:22:12;26.60;62.70
57552;DHT22;43379;48.160;14.036;2022-08-11T07:25:14;26.30;62.70
57552;DHT22;43379;48.160;14.036;2022-08-11T07:28:05;25.90;64.60
57552;DHT22;43379;48.160;14.036;2022-08-11T07:30:55;25.70;64.50
57552;DHT22;43379;48.160;14.036;2022-08-11T07:33:29;26.10;66.30
57552;DHT22;43379;48.160;14.036;2022-08-11T07:35:59;26.40;64.20
57552;DHT22;43379;48.160;14.036;2022-08-11T07:38:32;26.20;63.90
57552;DHT22;43379;48.160;14.036;2022-08-11T07:41:14;26.20;65.10
57552;DHT22;43379;48.160;14.036;2022-08-11T07:43:42;26.00;65.20
57552;DHT22;43379;48.160;14.036;2022-08-11T07:46:10;26.40;66.90
57552;DHT22;43379;48.160;14.036;2022-08-11T07:48:55;26.40;66.20
57552;DHT22;43379;48.160;14.036;2022-08-11T07:51:42;25.90;63.60
57552;DHT22;43379;48.160;14.036;2022-08-11T07:54:27;26.20;64.90
57552;DHT22;43379;48.160;14.036;2022-08-11T07:56:53;26.30;64.80
57552;DHT22;43379;48.160;14.036;2022-08-11T07:59:19;26.40;63.50
57552;DHT22;43379;48.160;14.036;2022-08-11T08:02:04;26.30;62.20
57552;DHT22;43379;48.160;14.036;2022-08-11T08:04:49;26.00;63.10
57552;DHT22;43379;48.160;14.036;2022-08-11T08:07:35;25.90;64.20
57552;DHT22;43379;48.160;14.036;2022-08-11T08:10:20;25.80;64.90
57552;DHT22;43379;48.160;14.036;2022-08-11T08:13:06;26.20;63.90
57552;DHT22;43379;48.160;14.036;2022-08-11T08:15:52;26.50;64.80
57552;DHT22;43379;48.160;14.036;2022-08-11T08:18:38;26.40;61.90
57552;DHT22;43379;48.160;14.036;2022-08-11T08:21:05;26.50;61.60
57552;DHT22;43379;48.160;14.036;2022-08-11T08:23:44;26.20;61.40
57552;DHT22;43379;48.160;14.036;2022-08-11T08:26:14;26.10;62.30
57552;DHT22;43379;48.160;14.036;2022-08-11T08:29:01;26.30;62.00
57552;DHT22;43379;48.160;14.036;2022-08-11T08:31:47;26.30;61.40
57552;DHT22;43379;48.160;14.036;2022-08-11T08:34:14;26.20;62.40
57552;DHT22;43379;48.160;14.036;2022-08-11T08:36:48;26.20;61.60
57552;DHT22;43379;48.160;14.036;2022-08-11T08:39:14;26.50;62.50
57552;DHT22;43379;48.160;14.036;2022-08-11T08:41:48;26.50;59.40
57552;DHT22;43379;48.160;14.036;2022-08-11T08:44:16;26.70;61.00
57552;DHT22;43379;48.160;14.036;2022-08-11T08:46:49;26.90;59.90
57552;DHT22;43379;48.160;14.036;2022-08-11T08:49:20;26.90;59.80
57552;DHT22;43379;48.160;14.036;2022-08-11T08:51:53;27.20;59.70
57552;DHT22;43379;48.160;14.036;2022-08-11T08:54:24;26.80;58.90
57552;DHT22;43379;48.160;14.036;2022-08-11T08:56:54;26.80;59.20
57552;DHT22;43379;48.160;14.036;2022-08-11T08:59:22;26.80;58.00
57552;DHT22;43379;48.160;14.036;2022-08-11T09:01:54;26.70;59.40
57552;DHT22;43379;48.160;14.036;2022-08-11T09:04:22;27.00;58.90
57552;DHT22;43379;48.160;14.036;2022-08-11T09:06:49;27.30;58.20
57552;DHT22;43379;48.160;14.036;2022-08-11T09:09:15;27.40;58.80
57552;DHT22;43379;48.160;14.036;2022-08-11T09:11:43;27.30;58.00
57552;DHT22;43379;48.160;14.036;2022-08-11T09:17:10;27.70;57.90
57552;DHT22;43379;48.160;14.036;2022-08-11T09:19:36;27.80;56.80
57552;DHT22;43379;48.160;14.036;2022-08-11T09:22:03;28.10;58.00
57552;DHT22;43379;48.160;14.036;2022-08-11T09:24:48;28.00;57.60
57552;DHT22;43379;48.160;14.036;2022-08-11T09:27:34;27.90;57.40
57552;DHT22;43379;48.160;14.036;2022-08-11T09:30:00;28.30;57.90
57552;DHT22;43379;48.160;14.036;2022-08-11T09:32:26;28.20;55.90
57552;DHT22;43379;48.160;14.036;2022-08-11T09:34:53;28.00;56.10
57552;DHT22;43379;48.160;14.036;2022-08-11T09:37:21;28.00;56.60
57552;DHT22;43379;48.160;14.036;2022-08-11T09:40:06;27.60;56.10
57552;DHT22;43379;48.160;14.036;2022-08-11T09:42:51;27.40;56.40
57552;DHT22;43379;48.160;14.036;2022-08-11T09:45:37;27.50;57.30
57552;DHT22;43379;48.160;14.036;2022-08-11T09:48:03;27.80;57.80
57552;DHT22;43379;48.160;14.036;2022-08-11T09:50:33;28.10;57.50
57552;DHT22;43379;48.160;14.036;2022-08-11T09:53:03;28.00;56.00
57552;DHT22;43379;48.160;14.036;2022-08-11T09:55:34;27.80;56.60
57552;DHT22;43379;48.160;14.036;2022-08-11T09:58:00;27.70;57.20
57552;DHT22;43379;48.160;14.036;2022-08-11T10:00:38;27.40;56.10
57552;DHT22;43379;48.160;14.036;2022-08-11T10:03:31;27.50;56.60
57552;DHT22;43379;48.160;14.036;2022-08-11T10:06:00;27.40;56.00
57552;DHT22;43379;48.160;14.036;2022-08-11T10:08:50;27.30;56.60
57552;DHT22;43379;48.160;14.036;2022-08-11T10:11:20;27.50;56.80
57552;DHT22;43379;48.160;14.036;2022-08-11T10:13:50;27.40;56.40
57552;DHT22;43379;48.160;14.036;2022-08-11T10:16:38;27.50;56.70
57552;DHT22;43379;48.160;14.036;2022-08-11T10:19:06;27.40;57.00
57552;DHT22;43379;48.160;14.036;2022-08-11T10:21:39;27.30;56.20
57552;DHT22;43379;48.160;14.036;2022-08-11T10:24:07;27.40;57.00
57552;DHT22;43379;48.160;14.036;2022-08-11T10:26:53;27.40;56.40
57552;DHT22;43379;48.160;14.036;2022-08-11T10:32:09;27.60;56.70
57552;DHT22;43379;48.160;14.036;2022-08-11T10:34:53;27.50;55.60
57552;DHT22;43379;48.160;14.036;2022-08-11T10:37:22;27.60;56.20
57552;DHT22;43379;48.160;14.036;2022-08-11T10:39:49;27.80;57.50
57552;DHT22;43379;48.160;14.036;2022-08-11T10:42:16;27.90;57.80
57552;DHT22;43379;48.160;14.036;2022-08-11T10:45:03;28.00;58.10
57552;DHT22;43379;48.160;14.036;2022-08-11T10:47:55;28.30;56.80
57552;DHT22;43379;48.160;14.036;2022-08-11T10:50:22;28.10;55.60
57552;DHT22;43379;48.160;14.036;2022-08-11T10:53:08;28.20;55.80
57552;DHT22;43379;48.160;14.036;2022-08-11T10:55:53;27.70;55.70
57552;DHT22;43379;48.160;14.036;2022-08-11T10:58:38;27.80;55.90
57552;DHT22;43379;48.160;14.036;2022-08-11T11:01:31;27.70;55.90
57552;DHT22;43379;48.160;14.036;2022-08-11T11:04:04;27.80;57.20
57552;DHT22;43379;48.160;14.036;2022-08-11T11:09:30;28.10;57.10
57552;DHT22;43379;48.160;14.036;2022-08-11T11:12:18;28.20;56.90
57552;DHT22;43379;48.160;14.036;2022-08-11T11:15:05;28.10;57.20
57552;DHT22;43379;48.160;14.036;2022-08-11T11:18:03;28.30;57.60
57552;DHT22;43379;48.160;14.036;2022-08-11T11:20:44;28.20;57.50
57552;DHT22;43379;48.160;14.036;2022-08-11T11:23:18;27.80;55.30
57552;DHT22;43379;48.160;14.036;2022-08-11T11:26:04;27.90;57.80
57552;DHT22;43379;48.160;14.036;2022-08-11T11:37:00;27.60;56.90
57552;DHT22;43379;48.160;14.036;2022-08-11T11:39:28;27.70;59.10
57552;DHT22;43379;48.160;14.036;2022-08-11T11:41:58;27.70;57.30
57552;DHT22;43379;48.160;14.036;2022-08-11T11:44:25;27.80;57.50
57552;DHT22;43379;48.160;14.036;2022-08-11T11:46:51;28.00;58.60
57552;DHT22;43379;48.160;14.036;2022-08-11T11:49:19;28.10;59.10
57552;DHT22;43379;48.160;14.036;2022-08-11T11:51:48;28.20;58.30
57552;DHT22;43379;48.160;14.036;2022-08-11T11:54:15;28.50;58.80
57552;DHT22;43379;48.160;14.036;2022-08-11T11:56:42;28.60;58.00
57552;DHT22;43379;48.160;14.036;2022-08-11T11:59:10;28.50;55.50
57552;DHT22;43379;48.160;14.036;2022-08-11T12:01:56;28.40;55.40
57552;DHT22;43379;48.160;14.036;2022-08-11T12:04:22;28.30;56.90
57552;DHT22;43379;48.160;14.036;2022-08-11T12:06:49;28.50;57.30
57552;DHT22;43379;48.160;14.036;2022-08-11T12:09:16;28.50;57.40
57552;DHT22;43379;48.160;14.036;2022-08-11T12:11:49;28.60;56.90
57552;DHT22;43379;48.160;14.036;2022-08-11T12:14:33;28.30;55.10
57552;DHT22;43379;48.160;14.036;2022-08-11T12:17:01;28.00;56.50
57552;DHT22;43379;48.160;14.036;2022-08-11T12:19:27;27.80;55.60
57552;DHT22;43379;48.160;14.036;2022-08-11T12:21:56;27.70;57.00
57552;DHT22;43379;48.160;14.036;2022-08-11T12:24:41;27.70;56.40
57552;DHT22;43379;48.160;14.036;2022-08-11T12:27:26;27.80;57.50
57552;DHT22;43379;48.160;14.036;2022-08-11T12:29:59;28.10;58.70
57552;DHT22;43379;48.160;14.036;2022-08-11T12:32:31;28.30;58.00
57552;DHT22;43379;48.160;14.036;2022-08-11T12:34:59;28.30;56.30
57552;DHT22;43379;48.160;14.036;2022-08-11T12:37:39;28.20;56.00
57552;DHT22;43379;48.160;14.036;2022-08-11T12:40:10;28.10;55.20
57552;DHT22;43379;48.160;14.036;2022-08-11T12:42:58;28.00;54.70
57552;DHT22;43379;48.160;14.036;2022-08-11T12:45:44;28.00;57.60
57552;DHT22;43379;48.160;14.036;2022-08-11T12:48:16;28.30;57.20
57552;DHT22;43379;48.160;14.036;2022-08-11T12:51:04;28.10;54.30
57552;DHT22;43379;48.160;14.036;2022-08-11T12:53:58;28.20;56.70
57552;DHT22;43379;48.160;14.036;2022-08-11T12:56:27;28.40;58.20
57552;DHT22;43379;48.160;14.036;2022-08-11T12:59:16;28.60;57.10
57552;DHT22;43379;48.160;14.036;2022-08-11T13:02:01;28.40;52.90
57552;DHT22;43379;48.160;14.036;2022-08-11T13:04:46;28.50;54.70
57552;DHT22;43379;48.160;14.036;2022-08-11T13:07:26;28.60;55.90
57552;DHT22;43379;48.160;14.036;2022-08-11T13:09:54;28.60;53.50
57552;DHT22;43379;48.160;14.036;2022-08-11T13:12:22;28.20;52.50
57552;DHT22;43379;48.160;14.036;2022-08-11T13:15:08;28.10;52.30
57552;DHT22;43379;48.160;14.036;2022-08-11T13:17:36;27.90;51.60
57552;DHT22;43379;48.160;14.036;2022-08-11T13:20:03;27.70;51.60
57552;DHT22;43379;48.160;14.036;2022-08-11T13:22:30;27.40;51.20
57552;DHT22;43379;48.160;14.036;2022-08-11T13:24:57;27.50;52.60
57552;DHT22;43379;48.160;14.036;2022-08-11T13:27:23;27.60;53.40
57552;DHT22;43379;48.160;14.036;2022-08-11T13:29:49;27.70;52.00
57552;DHT22;43379;48.160;14.036;2022-08-11T13:32:36;27.90;54.30
57552;DHT22;43379;48.160;14.036;2022-08-11T13:35:03;28.00;52.20
57552;DHT22;43379;48.160;14.036;2022-08-11T13:37:28;27.90;51.60
57552;DHT22;43379;48.160;14.036;2022-08-11T13:39:54;27.80;51.00
57552;DHT22;43379;48.160;14.036;2022-08-11T13:42:20;27.70;50.80
57552;DHT22;43379;48.160;14.036;2022-08-11T13:44:46;27.80;52.80
57552;DHT22;43379;48.160;14.036;2022-08-11T13:47:14;27.70;51.80
57552;DHT22;43379;48.160;14.036;2022-08-11T13:49:41;27.80;52.40
57552;DHT22;43379;48.160;14.036;2022-08-11T13:52:17;27.80;52.40
57552;DHT22;43379;48.160;14.036;2022-08-11T13:54:46;28.00;53.80
57552;DHT22;43379;48.160;14.036;2022-08-11T13:57:13;28.10;53.00
57552;DHT22;43379;48.160;14.036;2022-08-11T13:59:45;27.90;48.90
57552;DHT22;43379;48.160;14.036;2022-08-11T14:02:15;27.90;51.20
57552;DHT22;43379;48.160;14.036;2022-08-11T14:04:56;27.90;49.90
57552;DHT22;43379;48.160;14.036;2022-08-11T14:07:25;27.80;50.60
57552;DHT22;43379;48.160;14.036;2022-08-11T14:09:56;27.70;50.50
57552;DHT22;43379;48.160;14.036;2022-08-11T14:12:25;27.50;49.80
57552;DHT22;43379;48.160;14.036;2022-08-11T14:15:15;27.60;49.50
57552;DHT22;43379;48.160;14.036;2022-08-11T14:17:47;27.60;49.60
57552;DHT22;43379;48.160;14.036;2022-08-11T14:20:17;27.50;49.30
57552;DHT22;43379;48.160;14.036;2022-08-11T14:22:44;27.50;50.00
57552;DHT22;43379;48.160;14.036;2022-08-11T14:25:13;27.70;50.50
57552;DHT22;43379;48.160;14.036;2022-08-11T14:27:40;27.70;50.70
57552;DHT22;43379;48.160;14.036;2022-08-11T14:30:06;27.80;49.50
57552;DHT22;43379;48.160;14.036;2022-08-11T14:32:53;27.70;49.70
57552;DHT22;43379;48.160;14.036;2022-08-11T14:35:20;27.50;49.60
57552;DHT22;43379;48.160;14.036;2022-08-11T14:37:47;27.40;48.30
57552;DHT22;43379;48.160;14.036;2022-08-11T14:40:13;27.30;49.00
57552;DHT22;43379;48.160;14.036;2022-08-11T14:42:59;27.30;49.80
57552;DHT22;43379;48.160;14.036;2022-08-11T14:45:45;27.40;49.30
57552;DHT22;43379;48.160;14.036;2022-08-11T14:48:30;27.40;48.80
57552;DHT22;43379;48.160;14.036;2022-08-11T14:50:56;27.40;48.30
57552;DHT22;43379;48.160;14.036;2022-08-11T14:53:22;27.30;49.10
57552;DHT22;43379;48.160;14.036;2022-08-11T14:55:49;27.30;48.90
57552;DHT22;43379;48.160;14.036;2022-08-11T14:58:34;27.20;48.70
57552;DHT22;43379;48.160;14.036;2022-08-11T15:01:02;27.30;49.70
57552;DHT22;43379;48.160;14.036;2022-08-11T15:03:48;27.40;48.70
57552;DHT22;43379;48.160;14.036;2022-08-11T15:06:16;27.30;48.40
57552;DHT22;43379;48.160;14.036;2022-08-11T15:08:42;27.30;48.50
57552;DHT22;43379;48.160;14.036;2022-08-11T15:11:27;27.20;48.80
57552;DHT22;43379;48.160;14.036;2022-08-11T15:14:12;27.30;49.50
57552;DHT22;43379;48.160;14.036;2022-08-11T15:16:43;27.30;49.00
57552;DHT22;43379;48.160;14.036;2022-08-11T15:19:29;27.30;48.00
57552;DHT22;43379;48.160;14.036;2022-08-11T15:21:55;27.10;47.70
57552;DHT22;43379;48.160;14.036;2022-08-11T15:24:53;27.10;48.10
57552;DHT22;43379;48.160;14.036;2022-08-11T15:27:20;27.10;48.00
57552;DHT22;43379;48.160;14.036;2022-08-11T15:30:06;27.10;47.50
57552;DHT22;43379;48.160;14.036;2022-08-11T15:32:51;27.10;47.80
57552;DHT22;43379;48.160;14.036;2022-08-11T15:35:37;27.00;47.90
57552;DHT22;43379;48.160;14.036;2022-08-11T15:38:22;26.90;47.70
57552;DHT22;43379;48.160;14.036;2022-08-11T15:40:48;26.70;48.20
57552;DHT22;43379;48.160;14.036;2022-08-11T15:43:41;26.70;48.80
57552;DHT22;43379;48.160;14.036;2022-08-11T15:49:13;26.80;48.90
57552;DHT22;43379;48.160;14.036;2022-08-11T15:54:25;26.70;49.30
57552;DHT22;43379;48.160;14.036;2022-08-11T15:56:53;26.70;49.20
57552;DHT22;43379;48.160;14.036;2022-08-11T15:59:20;26.70;49.20
57552;DHT22;43379;48.160;14.036;2022-08-11T16:02:07;26.80;49.40
57552;DHT22;43379;48.160;14.036;2022-08-11T16:05:02;26.80;48.90
57552;DHT22;43379;48.160;14.036;2022-08-11T16:07:32;26.80;48.30
57552;DHT22;43379;48.160;14.036;2022-08-11T16:10:14;26.80;49.10
57552;DHT22;43379;48.160;14.036;2022-08-11T16:12:51;26.90;49.90
57552;DHT22;43379;48.160;14.036;2022-08-11T16:15:47;27.00;50.10
57552;DHT22;43379;48.160;14.036;2022-08-11T16:18:35;26.90;50.20
57552;DHT22;43379;48.160;14.036;2022-08-11T16:21:14;27.00;50.00
57552;DHT22;43379;48.160;14.036;2022-08-11T16:23:47;27.00;50.00
57552;DHT22;43379;48.160;14.036;2022-08-11T16:26:20;27.00;50.30
57552;DHT22;43379;48.160;14.036;2022-08-11T16:28:53;27.10;50.80
57552;DHT22;43379;48.160;14.036;2022-08-11T16:31:23;27.10;50.40
57552;DHT22;43379;48.160;14.036;2022-08-11T16:33:51;27.10;50.90
57552;DHT22;43379;48.160;14.036;2022-08-11T16:36:19;27.10;50.10
57552;DHT22;43379;48.160;14.036;2022-08-11T16:39:06;27.10;50.10
57552;DHT22;43379;48.160;14.036;2022-08-11T16:41:34;26.90;50.10
57552;DHT22;43379;48.160;14.036;2022-08-11T16:44:19;27.00;50.30
57552;DHT22;43379;48.160;14.036;2022-08-11T16:47:06;27.00;50.60
57552;DHT22;43379;48.160;14.036;2022-08-11T16:49:37;27.00;50.50
57552;DHT22;43379;48.160;14.036;2022-08-11T16:52:05;27.00;50.40
57552;DHT22;43379;48.160;14.036;2022-08-11T16:54:35;26.90;51.00
57552;DHT22;43379;48.160;14.036;2022-08-11T16:57:05;27.00;50.90
57552;DHT22;43379;48.160;14.036;2022-08-11T16:59:52;26.90;50.80
57552;DHT22;43379;48.160;14.036;2022-08-11T17:02:21;26.90;51.30
57552;DHT22;43379;48.160;14.036;2022-08-11T17:05:14;26.80;51.80
57552;DHT22;43379;48.160;14.036;2022-08-11T17:08:02;26.80;52.40
57552;DHT22;43379;48.160;14.036;2022-08-11T17:10:57;26.60;51.90
57552;DHT22;43379;48.160;14.036;2022-08-11T17:14:02;26.60;52.70
57552;DHT22;43379;48.160;14.036;2022-08-11T17:16:34;26.50;52.30
57552;DHT22;43379;48.160;14.036;2022-08-11T17:19:12;26.40;52.00
57552;DHT22;43379;48.160;14.036;2022-08-11T17:21:44;26.30;51.70
57552;DHT22;43379;48.160;14.036;2022-08-11T17:24:31;26.10;52.00
57552;DHT22;43379;48.160;14.036;2022-08-11T17:26:59;26.00;52.00
57552;DHT22;43379;48.160;14.036;2022-08-11T17:31:54;25.90;52.40
57552;DHT22;43379;48.160;14.036;2022-08-11T17:34:42;25.80;52.40
57552;DHT22;43379;48.160;14.036;2022-08-11T17:37:28;25.80;53.20
57552;DHT22;43379;48.160;14.036;2022-08-11T17:39:56;25.80;53.00
57552;DHT22;43379;48.160;14.036;2022-08-11T17:42:23;25.80;53.10
57552;DHT22;43379;48.160;14.036;2022-08-11T17:45:09;25.80;53.30
57552;DHT22;43379;48.160;14.036;2022-08-11T17:47:55;25.80;53.30
57552;DHT22;43379;48.160;14.036;2022-08-11T17:50:40;25.70;53.60
57552;DHT22;43379;48.160;14.036;2022-08-11T17:53:07;25.70;53.80
57552;DHT22;43379;48.160;14.036;2022-08-11T17:55:51;25.60;54.00
57552;DHT22;43379;48.160;14.036;2022-08-11T17:58:39;25.50;53.90
57552;DHT22;43379;48.160;14.036;2022-08-11T18:01:24;25.40;53.90
57552;DHT22;43379;48.160;14.036;2022-08-11T18:03:51;25.30;54.00
57552;DHT22;43379;48.160;14.036;2022-08-11T18:06:20;25.30;54.30
57552;DHT22;43379;48.160;14.036;2022-08-11T18:08:48;25.20;54.50
57552;DHT22;43379;48.160;14.036;2022-08-11T18:11:34;25.20;54.60
57552;DHT22;43379;48.160;14.036;2022-08-11T18:14:20;25.00;54.70
57552;DHT22;43379;48.160;14.036;2022-08-11T18:17:05;24.90;54.80
57552;DHT22;43379;48.160;14.036;2022-08-11T18:19:49;24.90;54.80
57552;DHT22;43379;48.160;14.036;2022-08-11T18:22:37;24.80;54.80
57552;DHT22;43379;48.160;14.036;2022-08-11T18:25:32;24.80;54.90
57552;DHT22;43379;48.160;14.036;2022-08-11T18:28:22;24.70;55.10
57552;DHT22;43379;48.160;14.036;2022-08-11T18:31:11;24.70;55.00
57552;DHT22;43379;48.160;14.036;2022-08-11T18:33:58;24.60;55.20
57552;DHT22;43379;48.160;14.036;2022-08-11T18:37:05;24.60;55.60
57552;DHT22;43379;48.160;14.036;2022-08-11T18:39:55;24.50;55.60
57552;DHT22;43379;48.160;14.036;2022-08-11T18:42:41;24.50;56.10
57552;DHT22;43379;48.160;14.036;2022-08-11T18:45:26;24.50;56.20
57552;DHT22;43379;48.160;14.036;2022-08-11T18:48:13;24.40;55.60
57552;DHT22;43379;48.160;14.036;2022-08-11T18:51:01;24.30;56.00
57552;DHT22;43379;48.160;14.036;2022-08-11T18:53:51;24.30;56.00
57552;DHT22;43379;48.160;14.036;2022-08-11T18:56:36;24.20;56.10
57552;DHT22;43379;48.160;14.036;2022-08-11T18:59:24;24.30;56.30
57552;DHT22;43379;48.160;14.036;2022-08-11T19:02:10;24.20;57.10
57552;DHT22;43379;48.160;14.036;2022-08-11T19:04:57;24.20;57.30
57552;DHT22;43379;48.160;14.036;2022-08-11T19:07:44;24.10;57.00
57552;DHT22;43379;48.160;14.036;2022-08-11T19:10:29;24.20;57.10
57552;DHT22;43379;48.160;14.036;2022-08-11T19:13:14;24.10;57.20
57552;DHT22;43379;48.160;14.036;2022-08-11T19:16:01;24.10;57.20
57552;DHT22;43379;48.160;14.036;2022-08-11T19:18:49;24.20;57.40
57552;DHT22;43379;48.160;14.036;2022-08-11T19:21:35;24.20;57.60
57552;DHT22;43379;48.160;14.036;2022-08-11T19:24:21;24.10;57.80
57552;DHT22;43379;48.160;14.036;2022-08-11T19:27:06;24.10;58.10
57552;DHT22;43379;48.160;14.036;2022-08-11T19:29:52;24.10;58.40
57552;DHT22;43379;48.160;14.036;2022-08-11T19:32:37;24.10;58.50
57552;DHT22;43379;48.160;14.036;2022-08-11T19:35:23;24.10;58.50
57552;DHT22;43379;48.160;14.036;2022-08-11T19:38:08;24.00;58.70
57552;DHT22;43379;48.160;14.036;2022-08-11T19:40:53;24.00;58.60
57552;DHT22;43379;48.160;14.036;2022-08-11T19:43:40;24.00;58.80
57552;DHT22;43379;48.160;14.036;2022-08-11T19:46:25;23.90;58.90
57552;DHT22;43379;48.160;14.036;2022-08-11T19:49:09;23.90;58.90
57552;DHT22;43379;48.160;14.036;2022-08-11T19:51:56;23.90;59.10